sensor_id;sensor_type;location;lat;lon;timestamp;temperature;humidity
21518;DHT22;61765;45.794;24.150;2023-09-08T00:02:34;21.20;77.50
21518;DHT22;61765;45.794;24.150;2023-09-08T00:10:42;21.20;77.40
21518;DHT22;61765;45.794;24.150;2023-09-08T00:18:48;21.10;77.60
21518;DHT22;61765;45.794;24.150;2023-09-08T00:26:56;21.20;77.90
21518;DHT22;61765;45.794;24.150;2023-09-08T00:35:01;21.10;78.30
21518;DHT22;61765;45.794;24.150;2023-09-08T00:43:09;20.90;78.50
21518;DHT22;61765;45.794;24.150;2023-09-08T00:51:15;21.00;78.90
21518;DHT22;61765;45.794;24.150;2023-09-08T00:59:23;21.00;78.90
21518;DHT22;61765;45.794;24.150;2023-09-08T01:07:30;20.90;79.10
21518;DHT22;61765;45.794;24.150;2023-09-08T01:15:39;20.80;79.00
21518;DHT22;61765;45.794;24.150;2023-09-08T01:23:57;20.70;79.40
21518;DHT22;61765;45.794;24.150;2023-09-08T01:32:07;20.70;79.40
21518;DHT22;61765;45.794;24.150;2023-09-08T01:40:13;20.60;80.00
21518;DHT22;61765;45.794;24.150;2023-09-08T01:48:23;20.50;80.00
21518;DHT22;61765;45.794;24.150;2023-09-08T01:56:29;20.50;80.20
21518;DHT22;61765;45.794;24.150;2023-09-08T02:04:39;20.50;80.50
21518;DHT22;61765;45.794;24.150;2023-09-08T02:13:06;20.60;80.40
21518;DHT22;61765;45.794;24.150;2023-09-08T02:21:14;20.40;80.70
21518;DHT22;61765;45.794;24.150;2023-09-08T02:29:19;20.30;80.60
21518;DHT22;61765;45.794;24.150;2023-09-08T02:37:28;20.40;80.60
21518;DHT22;61765;45.794;24.150;2023-09-08T02:45:34;20.30;80.60
21518;DHT22;61765;45.794;24.150;2023-09-08T02:53:43;20.30;80.90
21518;DHT22;61765;45.794;24.150;2023-09-08T03:01:48;20.20;81.20
21518;DHT22;61765;45.794;24.150;2023-09-08T03:10:00;20.20;81.00
21518;DHT22;61765;45.794;24.150;2023-09-08T03:18:06;20.10;81.00
21518;DHT22;61765;45.794;24.150;2023-09-08T03:26:14;20.00;81.50
21518;DHT22;61765;45.794;24.150;2023-09-08T03:34:19;19.90;81.90
21518;DHT22;61765;45.794;24.150;2023-09-08T03:42:28;20.00;81.80
21518;DHT22;61765;45.794;24.150;2023-09-08T03:50:34;19.80;81.90
21518;DHT22;61765;45.794;24.150;2023-09-08T03:58:43;19.60;82.30
21518;DHT22;61765;45.794;24.150;2023-09-08T04:06:48;19.60;82.80
21518;DHT22;61765;45.794;24.150;2023-09-08T04:14:56;19.60;82.90
21518;DHT22;61765;45.794;24.150;2023-09-08T04:23:02;19.60;82.70
21518;DHT22;61765;45.794;24.150;2023-09-08T04:31:10;19.70;82.40
21518;DHT22;61765;45.794;24.150;2023-09-08T04:39:16;19.70;82.70
21518;DHT22;61765;45.794;24.150;2023-09-08T04:47:24;19.80;81.60
21518;DHT22;61765;45.794;24.150;2023-09-08T04:55:29;19.90;80.30
21518;DHT22;61765;45.794;24.150;2023-09-08T05:03:37;20.00;80.00
21518;DHT22;61765;45.794;24.150;2023-09-08T05:11:43;20.20;79.70
21518;DHT22;61765;45.794;24.150;2023-09-08T05:19:51;20.40;79.30
21518;DHT22;61765;45.794;24.150;2023-09-08T05:27:57;20.90;78.70
21518;DHT22;61765;45.794;24.150;2023-09-08T05:36:09;21.10;78.80
21518;DHT22;61765;45.794;24.150;2023-09-08T05:44:20;21.60;77.20
21518;DHT22;61765;45.794;24.150;2023-09-08T05:52:31;22.10;76.80
21518;DHT22;61765;45.794;24.150;2023-09-08T06:00:37;22.40;76.50
21518;DHT22;61765;45.794;24.150;2023-09-08T06:08:45;22.50;77.00
21518;DHT22;61765;45.794;24.150;2023-09-08T06:16:50;23.30;75.50
21518;DHT22;61765;45.794;24.150;2023-09-08T06:24:59;23.60;74.70
21518;DHT22;61765;45.794;24.150;2023-09-08T06:33:05;24.00;74.00
21518;DHT22;61765;45.794;24.150;2023-09-08T06:41:13;24.70;71.60
21518;DHT22;61765;45.794;24.150;2023-09-08T06:49:19;25.30;70.50
21518;DHT22;61765;45.794;24.150;2023-09-08T06:57:28;25.40;68.80
21518;DHT22;61765;45.794;24.150;2023-09-08T07:05:34;25.90;67.90
21518;DHT22;61765;45.794;24.150;2023-09-08T07:13:42;26.20;67.10
21518;DHT22;61765;45.794;24.150;2023-09-08T07:21:48;26.70;66.80
21518;DHT22;61765;45.794;24.150;2023-09-08T07:29:56;26.90;65.60
21518;DHT22;61765;45.794;24.150;2023-09-08T07:38:02;26.60;68.00
21518;DHT22;61765;45.794;24.150;2023-09-08T07:46:11;26.60;67.10
21518;DHT22;61765;45.794;24.150;2023-09-08T07:54:16;26.40;67.80
21518;DHT22;61765;45.794;24.150;2023-09-08T08:02:24;26.70;67.10
21518;DHT22;61765;45.794;24.150;2023-09-08T08:10:30;26.80;66.20
21518;DHT22;61765;45.794;24.150;2023-09-08T08:18:38;26.60;67.20
21518;DHT22;61765;45.794;24.150;2023-09-08T08:26:43;26.80;66.90
21518;DHT22;61765;45.794;24.150;2023-09-08T08:34:51;27.10;65.20
21518;DHT22;61765;45.794;24.150;2023-09-08T08:42:57;26.90;64.50
21518;DHT22;61765;45.794;24.150;2023-09-08T08:51:08;27.20;63.60
21518;DHT22;61765;45.794;24.150;2023-09-08T08:59:15;27.00;65.70
21518;DHT22;61765;45.794;24.150;2023-09-08T09:07:24;27.90;61.60
21518;DHT22;61765;45.794;24.150;2023-09-08T09:15:30;28.00;61.60
21518;DHT22;61765;45.794;24.150;2023-09-08T09:23:38;28.60;61.10
21518;DHT22;61765;45.794;24.150;2023-09-08T09:31:54;28.90;61.20
21518;DHT22;61765;45.794;24.150;2023-09-08T09:40:02;29.50;61.00
21518;DHT22;61765;45.794;24.150;2023-09-08T09:48:10;29.40;61.70
21518;DHT22;61765;45.794;24.150;2023-09-08T09:56:20;29.60;60.50
21518;DHT22;61765;45.794;24.150;2023-09-08T10:04:28;30.10;60.00
21518;DHT22;61765;45.794;24.150;2023-09-08T10:12:37;30.60;57.40
21518;DHT22;61765;45.794;24.150;2023-09-08T10:20:44;31.10;57.10
21518;DHT22;61765;45.794;24.150;2023-09-08T10:28:54;32.80;56.50
21518;DHT22;61765;45.794;24.150;2023-09-08T10:37:00;40.70;47.50
21518;DHT22;61765;45.794;24.150;2023-09-08T10:45:17;49.60;36.20
21518;DHT22;61765;45.794;24.150;2023-09-08T10:53:23;52.90;32.20
21518;DHT22;61765;45.794;24.150;2023-09-08T11:01:33;54.60;31.20
21518;DHT22;61765;45.794;24.150;2023-09-08T11:09:39;55.60;29.90
21518;DHT22;61765;45.794;24.150;2023-09-08T11:17:48;57.60;28.80
21518;DHT22;61765;45.794;24.150;2023-09-08T11:25:55;59.20;28.00
21518;DHT22;61765;45.794;24.150;2023-09-08T11:34:04;60.70;27.60
21518;DHT22;61765;45.794;24.150;2023-09-08T11:42:12;60.80;27.00
21518;DHT22;61765;45.794;24.150;2023-09-08T11:50:21;59.60;27.30
21518;DHT22;61765;45.794;24.150;2023-09-08T11:58:26;57.90;28.00
21518;DHT22;61765;45.794;24.150;2023-09-08T12:06:35;59.90;26.90
21518;DHT22;61765;45.794;24.150;2023-09-08T12:14:40;59.50;27.00
21518;DHT22;61765;45.794;24.150;2023-09-08T12:22:52;60.50;26.40
21518;DHT22;61765;45.794;24.150;2023-09-08T12:30:57;60.80;25.80
21518;DHT22;61765;45.794;24.150;2023-09-08T12:39:06;59.90;25.90
21518;DHT22;61765;45.794;24.150;2023-09-08T12:47:12;51.70;28.20
21518;DHT22;61765;45.794;24.150;2023-09-08T12:55:20;41.90;36.50
21518;DHT22;61765;45.794;24.150;2023-09-08T13:03:26;36.60;42.10
21518;DHT22;61765;45.794;24.150;2023-09-08T13:11:34;34.20;46.30
21518;DHT22;61765;45.794;24.150;2023-09-08T13:19:39;33.10;48.60
21518;DHT22;61765;45.794;24.150;2023-09-08T13:27:47;33.00;48.30
21518;DHT22;61765;45.794;24.150;2023-09-08T13:35:53;32.00;49.80
21518;DHT22;61765;45.794;24.150;2023-09-08T13:44:01;31.70;50.20
21518;DHT22;61765;45.794;24.150;2023-09-08T13:52:07;32.10;49.90
21518;DHT22;61765;45.794;24.150;2023-09-08T14:00:19;31.20;51.20
21518;DHT22;61765;45.794;24.150;2023-09-08T14:08:26;31.10;51.40
21518;DHT22;61765;45.794;24.150;2023-09-08T14:16:57;30.90;51.20
21518;DHT22;61765;45.794;24.150;2023-09-08T14:25:03;30.30;52.20
21518;DHT22;61765;45.794;24.150;2023-09-08T14:33:11;30.50;52.00
21518;DHT22;61765;45.794;24.150;2023-09-08T14:41:16;30.30;52.30
21518;DHT22;61765;45.794;24.150;2023-09-08T14:49:25;30.10;52.60
21518;DHT22;61765;45.794;24.150;2023-09-08T14:57:30;30.30;53.50
21518;DHT22;61765;45.794;24.150;2023-09-08T15:05:38;30.30;53.00
21518;DHT22;61765;45.794;24.150;2023-09-08T15:13:44;30.30;52.60
21518;DHT22;61765;45.794;24.150;2023-09-08T15:21:52;30.20;53.00
21518;DHT22;61765;45.794;24.150;2023-09-08T15:29:57;30.00;53.00
21518;DHT22;61765;45.794;24.150;2023-09-08T15:38:09;30.30;52.50
21518;DHT22;61765;45.794;24.150;2023-09-08T15:46:15;29.80;54.60
21518;DHT22;61765;45.794;24.150;2023-09-08T15:54:23;29.50;55.70
21518;DHT22;61765;45.794;24.150;2023-09-08T16:02:28;29.40;56.10
21518;DHT22;61765;45.794;24.150;2023-09-08T16:10:36;29.50;56.20
21518;DHT22;61765;45.794;24.150;2023-09-08T16:18:42;29.40;55.60
21518;DHT22;61765;45.794;24.150;2023-09-08T16:26:50;29.20;55.30
21518;DHT22;61765;45.794;24.150;2023-09-08T16:34:55;29.30;55.50
21518;DHT22;61765;45.794;24.150;2023-09-08T16:43:04;29.20;55.80
21518;DHT22;61765;45.794;24.150;2023-09-08T16:51:09;29.10;55.90
21518;DHT22;61765;45.794;24.150;2023-09-08T16:59:17;29.00;57.20
21518;DHT22;61765;45.794;24.150;2023-09-08T17:07:23;28.50;58.30
21518;DHT22;61765;45.794;24.150;2023-09-08T17:15:32;28.40;58.40
21518;DHT22;61765;45.794;24.150;2023-09-08T17:23:37;28.50;58.50
21518;DHT22;61765;45.794;24.150;2023-09-08T17:31:45;28.30;59.30
21518;DHT22;61765;45.794;24.150;2023-09-08T17:39:51;28.20;60.10
21518;DHT22;61765;45.794;24.150;2023-09-08T17:47:59;27.90;61.10
21518;DHT22;61765;45.794;24.150;2023-09-08T17:56:05;27.70;62.20
21518;DHT22;61765;45.794;24.150;2023-09-08T18:04:13;27.30;63.00
21518;DHT22;61765;45.794;24.150;2023-09-08T18:12:19;27.20;63.50
21518;DHT22;61765;45.794;24.150;2023-09-08T18:20:27;27.00;63.60
21518;DHT22;61765;45.794;24.150;2023-09-08T18:28:33;26.80;64.40
21518;DHT22;61765;45.794;24.150;2023-09-08T18:36:41;26.80;64.60
21518;DHT22;61765;45.794;24.150;2023-09-08T18:44:46;26.70;65.20
21518;DHT22;61765;45.794;24.150;2023-09-08T18:52:54;26.50;66.20
21518;DHT22;61765;45.794;24.150;2023-09-08T19:01:02;26.40;66.70
21518;DHT22;61765;45.794;24.150;2023-09-08T19:09:11;26.20;67.40
21518;DHT22;61765;45.794;24.150;2023-09-08T19:17:16;26.10;68.30
21518;DHT22;61765;45.794;24.150;2023-09-08T19:25:24;26.00;68.80
21518;DHT22;61765;45.794;24.150;2023-09-08T19:33:30;25.90;69.30
21518;DHT22;61765;45.794;24.150;2023-09-08T19:41:42;25.60;70.00
21518;DHT22;61765;45.794;24.150;2023-09-08T19:49:47;25.40;70.50
21518;DHT22;61765;45.794;24.150;2023-09-08T19:57:55;25.20;70.80
21518;DHT22;61765;45.794;24.150;2023-09-08T20:06:00;25.20;71.00
21518;DHT22;61765;45.794;24.150;2023-09-08T20:14:10;25.00;71.60
21518;DHT22;61765;45.794;24.150;2023-09-08T20:22:15;25.00;72.10
21518;DHT22;61765;45.794;24.150;2023-09-08T20:30:23;24.80;72.50
21518;DHT22;61765;45.794;24.150;2023-09-08T20:38:29;24.60;73.30
21518;DHT22;61765;45.794;24.150;2023-09-08T20:46:37;24.50;73.60
21518;DHT22;61765;45.794;24.150;2023-09-08T20:54:46;24.50;73.70
21518;DHT22;61765;45.794;24.150;2023-09-08T21:02:55;24.10;73.90
21518;DHT22;61765;45.794;24.150;2023-09-08T21:11:01;24.00;74.70
21518;DHT22;61765;45.794;24.150;2023-09-08T21:19:09;23.70;75.70
21518;DHT22;61765;45.794;24.150;2023-09-08T21:27:14;23.20;76.80
21518;DHT22;61765;45.794;24.150;2023-09-08T21:35:22;23.10;77.10
21518;DHT22;61765;45.794;24.150;2023-09-08T21:43:28;23.00;77.10
21518;DHT22;61765;45.794;24.150;2023-09-08T21:51:36;23.20;77.00
21518;DHT22;61765;45.794;24.150;2023-09-08T21:59:42;23.20;77.10
21518;DHT22;61765;45.794;24.150;2023-09-08T22:07:50;23.30;77.00
21518;DHT22;61765;45.794;24.150;2023-09-08T22:15:56;23.10;76.80
21518;DHT22;61765;45.794;24.150;2023-09-08T22:24:05;23.00;76.90
21518;DHT22;61765;45.794;24.150;2023-09-08T22:32:11;22.90;77.00
21518;DHT22;61765;45.794;24.150;2023-09-08T22:40:19;22.90;77.10
21518;DHT22;61765;45.794;24.150;2023-09-08T22:48:24;22.80;77.00
21518;DHT22;61765;45.794;24.150;2023-09-08T22:56:33;22.70;77.20
21518;DHT22;61765;45.794;24.150;2023-09-08T23:04:39;22.60;77.60
21518;DHT22;61765;45.794;24.150;2023-09-08T23:12:47;22.50;78.10
21518;DHT22;61765;45.794;24.150;2023-09-08T23:20:52;22.50;78.20
21518;DHT22;61765;45.794;24.150;2023-09-08T23:29:01;22.40;78.10
21518;DHT22;61765;45.794;24.150;2023-09-08T23:37:06;22.40;78.20
21518;DHT22;61765;45.794;24.150;2023-09-08T23:45:14;22.30;78.20
21518;DHT22;61765;45.794;24.150;2023-09-08T23:53:20;22.30;78.80
